createdAt,value
2023-04-01T00:00:00.636Z,-6.2
2023-04-01T00:04:02.153Z,-6.2
2023-04-01T00:08:00.876Z,-6.4
2023-04-01T00:12:00.861Z,-6.4
2023-04-01T00:16:03.315Z,-6.4
2023-04-01T00:20:00.941Z,-6.5
2023-04-01T00:24:00.745Z,-6.5
2023-04-01T00:28:00.834Z,-6.6
2023-04-01T00:32:00.856Z,-6.6
2023-04-01T00:36:06.522Z,-6.6
2023-04-01T00:40:01.545Z,-6.8
2023-04-01T00:44:11.935Z,-6.8
2023-04-01T00:48:03.828Z,-6.9
2023-04-01T00:52:02.060Z,-6.9
2023-04-01T00:56:03.043Z,-6.9
2023-04-01T01:00:01.030Z,-7
2023-04-01T01:04:02.256Z,-7
2023-04-01T01:08:05.546Z,-7.1
2023-04-01T01:12:05.082Z,-7.1
2023-04-01T01:16:04.760Z,-7.1
2023-04-01T01:20:12.711Z,-7.3
2023-04-01T01:24:11.172Z,-7.3
2023-04-01T01:28:12.601Z,-7.4
2023-04-01T01:32:04.756Z,-7.4
2023-04-01T01:36:01.823Z,-7.4
2023-04-01T01:40:03.342Z,-7.5
2023-04-01T01:44:02.692Z,-7.5
2023-04-01T01:48:02.585Z,-7.6
2023-04-01T01:52:01.173Z,-7.6
2023-04-01T01:56:01.512Z,-7.6
2023-04-01T02:00:03.193Z,-7.8
2023-04-01T02:04:00.832Z,-7.8
2023-04-01T02:08:03.325Z,-7.9
2023-04-01T02:12:04.007Z,-7.9
2023-04-01T02:16:07.466Z,-7.9
2023-04-01T02:20:04.409Z,-8.1
2023-04-01T02:24:02.343Z,-8.1
2023-04-01T02:28:02.178Z,-8.2
2023-04-01T02:32:02.164Z,-8.2
2023-04-01T02:36:00.660Z,-8.2
2023-04-01T02:40:01.133Z,-8.4
2023-04-01T02:44:00.625Z,-8.4
2023-04-01T02:48:00.738Z,-8.5
2023-04-01T02:52:00.711Z,-8.5
2023-04-01T02:56:00.711Z,-8.5
2023-04-01T03:00:00.673Z,-8.5
2023-04-01T03:04:00.968Z,-8.5
2023-04-01T03:08:00.601Z,-8.5
2023-04-01T03:12:00.703Z,-8.5
2023-04-01T03:16:01.152Z,-8.5
2023-04-01T03:20:00.792Z,-8.7
2023-04-01T03:24:00.581Z,-8.7
2023-04-01T03:28:01.178Z,-8.8
2023-04-01T03:32:00.574Z,-8.8
2023-04-01T03:36:00.901Z,-8.8
2023-04-01T03:40:00.794Z,-8.9
2023-04-01T03:44:00.669Z,-8.9
2023-04-01T03:48:00.644Z,-8.9
2023-04-01T03:52:00.860Z,-8.9
2023-04-01T03:56:03.262Z,-8.9
2023-04-01T04:00:00.842Z,-9
2023-04-01T04:04:00.707Z,-9
2023-04-01T04:08:00.715Z,-9.2
2023-04-01T04:12:00.832Z,-9.2
2023-04-01T04:16:00.906Z,-9.2
2023-04-01T04:20:00.619Z,-9.3
2023-04-01T04:24:01.326Z,-9.3
2023-04-01T04:28:00.659Z,-9.4
2023-04-01T04:32:00.762Z,-9.4
2023-04-01T04:36:00.763Z,-9.4
2023-04-01T04:40:00.677Z,-9.5
2023-04-01T04:44:00.535Z,-9.5
2023-04-01T04:48:00.848Z,-9.5
2023-04-01T04:52:00.625Z,-9.5
2023-04-01T04:56:00.649Z,-9.5
2023-04-01T05:00:00.654Z,-9.5
2023-04-01T05:04:00.738Z,-9.5
2023-04-01T05:08:00.600Z,-9.6
2023-04-01T05:12:00.874Z,-9.6
2023-04-01T05:16:00.669Z,-9.6
2023-04-01T05:20:01.186Z,-9.6
2023-04-01T05:24:00.648Z,-9.6
2023-04-01T05:28:00.773Z,-9.5
2023-04-01T05:32:00.614Z,-9.5
2023-04-01T05:36:06.356Z,-9.5
2023-04-01T05:40:00.920Z,-9.4
2023-04-01T05:44:00.803Z,-9.4
2023-04-01T05:48:00.931Z,-9.3
2023-04-01T05:52:00.791Z,-9.3
2023-04-01T05:56:02.856Z,-9.3
2023-04-01T06:00:00.755Z,-9
2023-04-01T06:04:00.740Z,-9
2023-04-01T06:08:05.157Z,-8.5
2023-04-01T06:12:10.412Z,-8.5
2023-04-01T06:16:04.390Z,-8.5
2023-04-01T06:20:03.905Z,-7.9
2023-04-01T06:24:12.030Z,-7.9
2023-04-01T06:28:09.068Z,-7.1
2023-04-01T06:32:12.588Z,-7.1
2023-04-01T06:36:10.180Z,-7.1
2023-04-01T06:40:08.951Z,-6.2
2023-04-01T06:44:07.688Z,-6.2
2023-04-01T06:48:10.694Z,-5.3
2023-04-01T06:52:05.909Z,-5.3
2023-04-01T06:56:02.661Z,-5.3
2023-04-01T07:00:01.667Z,-4.4
2023-04-01T07:04:03.858Z,-4.4
2023-04-01T07:08:02.408Z,-3.5
2023-04-01T07:12:02.633Z,-3.5
2023-04-01T07:16:08.724Z,-3.5
2023-04-01T07:20:04.051Z,-2.7
2023-04-01T07:24:04.106Z,-2.7
2023-04-01T07:28:01.910Z,-2
2023-04-01T07:32:10.643Z,-2
2023-04-01T07:36:03.256Z,-2
2023-04-01T07:40:10.309Z,-1.4
2023-04-01T07:44:06.198Z,-1.4
2023-04-01T07:48:08.610Z,-0.8
2023-04-01T07:52:05.070Z,-0.8
2023-04-01T07:56:05.038Z,-0.8
2023-04-01T08:00:05.310Z,-0.2
2023-04-01T08:04:10.511Z,-0.2
2023-04-01T08:08:06.755Z,0.4
2023-04-01T08:12:04.462Z,0.4
2023-04-01T08:16:05.671Z,0.4
2023-04-01T08:20:08.516Z,0.8
2023-04-01T08:24:06.539Z,0.8
2023-04-01T08:28:03.650Z,1.2
2023-04-01T08:32:03.448Z,1.2
2023-04-01T08:36:03.648Z,1.2
2023-04-01T08:40:10.335Z,1.6
2023-04-01T08:44:10.300Z,1.6
2023-04-01T08:48:10.587Z,1.8
2023-04-01T08:52:07.764Z,1.8
2023-04-01T08:56:06.543Z,1.8
2023-04-01T09:00:10.437Z,2
2023-04-01T09:04:10.428Z,2
2023-04-01T09:08:07.150Z,2.3
2023-04-01T09:12:10.478Z,2.3
2023-04-01T09:16:10.304Z,2.3
2023-04-01T09:20:10.432Z,2.5
2023-04-01T09:24:10.523Z,2.5
2023-04-01T09:28:07.821Z,3
2023-04-01T09:32:10.368Z,3
2023-04-01T09:36:03.935Z,3
2023-04-01T09:40:09.319Z,3.4
2023-04-01T09:44:03.220Z,3.4
2023-04-01T09:48:05.936Z,3.5
2023-04-01T09:52:09.901Z,3.5
2023-04-01T09:56:10.315Z,3.5
2023-04-01T10:00:10.621Z,3.7
2023-04-01T10:04:10.356Z,3.7
2023-04-01T10:08:10.342Z,3.9
2023-04-01T10:12:10.408Z,3.9
2023-04-01T10:16:07.206Z,3.9
2023-04-01T10:20:07.585Z,4.2
2023-04-01T10:24:10.452Z,4.2
2023-04-01T10:28:10.318Z,4.5
2023-04-01T10:32:10.439Z,4.5
2023-04-01T10:36:09.972Z,4.5
2023-04-01T10:40:10.481Z,4.9
2023-04-01T10:44:10.337Z,4.9
2023-04-01T10:48:10.539Z,5.3
2023-04-01T10:52:10.316Z,5.3
2023-04-01T10:56:10.319Z,5.3
2023-04-01T11:00:11.025Z,5.7
2023-04-01T11:04:10.435Z,5.7
2023-04-01T11:08:10.302Z,6.2
2023-04-01T11:12:10.889Z,6.2
2023-04-01T11:16:10.345Z,6.2
2023-04-01T11:20:09.383Z,6.6
2023-04-01T11:24:10.410Z,6.6
2023-04-01T11:28:10.472Z,7.1
2023-04-01T11:32:07.543Z,7.1
2023-04-01T11:36:07.969Z,7.1
2023-04-01T11:40:06.049Z,7.4
2023-04-01T11:44:10.381Z,7.4
2023-04-01T11:48:07.298Z,7.9
2023-04-01T11:52:06.766Z,7.9
2023-04-01T11:56:08.332Z,7.9
2023-04-01T12:00:10.719Z,8.3
2023-04-01T12:04:10.462Z,8.3
2023-04-01T12:08:05.294Z,8.7
2023-04-01T12:12:10.876Z,8.7
2023-04-01T12:16:08.319Z,8.7
2023-04-01T12:20:10.390Z,8.8
2023-04-01T12:24:09.014Z,8.8
2023-04-01T12:28:05.603Z,9.2
2023-04-01T12:32:05.707Z,9.2
2023-04-01T12:36:08.437Z,9.2
2023-04-01T12:40:06.463Z,9.4
2023-04-01T12:44:10.407Z,9.4
2023-04-01T12:48:09.059Z,9.6
2023-04-01T12:52:03.494Z,9.6
2023-04-01T12:56:03.673Z,9.6
2023-04-01T13:00:10.343Z,9.9
2023-04-01T13:04:10.305Z,9.9
2023-04-01T13:08:07.196Z,10.1
2023-04-01T13:12:10.105Z,10.1
2023-04-01T13:16:05.716Z,10.1
2023-04-01T13:20:07.318Z,10.5
2023-04-01T13:24:05.850Z,10.5
2023-04-01T13:28:04.430Z,10.7
2023-04-01T13:32:05.771Z,10.7
2023-04-01T13:36:08.050Z,10.7
2023-04-01T13:40:10.548Z,10.7
2023-04-01T13:44:03.965Z,10.7
2023-04-01T13:48:11.312Z,11
2023-04-01T13:52:08.259Z,11
2023-04-01T13:56:07.940Z,11
2023-04-01T14:00:07.228Z,11.1
2023-04-01T14:04:11.735Z,11.1
2023-04-01T14:08:04.606Z,11.4
2023-04-01T14:12:05.074Z,11.4
2023-04-01T14:16:08.067Z,11.4
2023-04-01T14:20:10.537Z,11.5
2023-04-01T14:24:09.466Z,11.5
2023-04-01T14:28:10.263Z,11.6
2023-04-01T14:32:06.665Z,11.6
2023-04-01T14:36:10.329Z,11.6
2023-04-01T14:40:10.445Z,11.7
2023-04-01T14:44:10.374Z,11.7
2023-04-01T14:48:10.491Z,11.7
2023-04-01T14:52:06.079Z,11.7
2023-04-01T14:56:02.798Z,11.7
2023-04-01T15:00:02.212Z,11.6
2023-04-01T15:04:07.516Z,11.6
2023-04-01T15:08:02.852Z,11.4
2023-04-01T15:12:07.452Z,11.4
2023-04-01T15:16:05.492Z,11.4
2023-04-01T15:20:10.496Z,11.5
2023-04-01T15:24:06.697Z,11.5
2023-04-01T15:28:07.122Z,11.5
2023-04-01T15:32:03.153Z,11.5
2023-04-01T15:36:05.170Z,11.5
2023-04-01T15:40:06.249Z,11.4
2023-04-01T15:44:00.769Z,11.4
2023-04-01T15:48:05.223Z,11.1
2023-04-01T15:52:05.875Z,11.1
2023-04-01T15:56:10.215Z,11.1
2023-04-01T16:00:11.081Z,10.9
2023-04-01T16:04:10.508Z,10.9
2023-04-01T16:08:09.236Z,10.8
2023-04-01T16:12:04.802Z,10.8
2023-04-01T16:16:07.736Z,10.8
2023-04-01T16:20:02.961Z,10.6
2023-04-01T16:24:03.346Z,10.6
2023-04-01T16:28:09.746Z,10.6
2023-04-01T16:32:09.910Z,10.6
2023-04-01T16:36:08.850Z,10.6
2023-04-01T16:40:10.475Z,10.3
2023-04-01T16:44:10.106Z,10.3
2023-04-01T16:48:05.840Z,10
2023-04-01T16:52:10.730Z,10
2023-04-01T16:56:05.226Z,10
2023-04-01T17:00:03.752Z,9.7
2023-04-01T17:04:08.081Z,9.7
2023-04-01T17:08:06.513Z,9.4
2023-04-01T17:12:05.965Z,9.4
2023-04-01T17:16:06.818Z,9.4
2023-04-01T17:20:10.348Z,8.8
2023-04-01T17:24:04.896Z,8.8
2023-04-01T17:28:05.612Z,8.3
2023-04-01T17:32:07.908Z,8.3
2023-04-01T17:36:05.561Z,8.3
2023-04-01T17:40:10.401Z,7.7
2023-04-01T17:44:07.632Z,7.7
2023-04-01T17:48:03.544Z,7.2
2023-04-01T17:52:03.808Z,7.2
2023-04-01T17:56:09.104Z,7.2
2023-04-01T18:00:03.107Z,6.6
2023-04-01T18:04:07.596Z,6.6
2023-04-01T18:08:10.511Z,6.2
2023-04-01T18:12:07.160Z,6.2
2023-04-01T18:16:10.497Z,6.2
2023-04-01T18:20:10.339Z,5.6
2023-04-01T18:24:05.845Z,5.6
2023-04-01T18:28:10.468Z,5
2023-04-01T18:32:08.723Z,5
2023-04-01T18:36:07.819Z,5
2023-04-01T18:40:10.374Z,4.5
2023-04-01T18:44:10.556Z,4.5
2023-04-01T18:48:06.900Z,4.1
2023-04-01T18:52:07.851Z,4.1
2023-04-01T18:56:02.775Z,4.1
2023-04-01T19:00:04.611Z,3.6
2023-04-01T19:04:07.880Z,3.6
2023-04-01T19:08:10.360Z,3.2
2023-04-01T19:12:10.563Z,3.2
2023-04-01T19:16:06.837Z,3.2
2023-04-01T19:20:05.496Z,2.9
2023-04-01T19:24:07.523Z,2.9
2023-04-01T19:28:04.696Z,2.7
2023-04-01T19:32:07.781Z,2.7
2023-04-01T19:36:04.038Z,2.7
2023-04-01T19:40:08.587Z,2.4
2023-04-01T19:44:04.923Z,2.4
2023-04-01T19:48:04.871Z,2.1
2023-04-01T19:52:04.366Z,2.1
2023-04-01T19:56:03.775Z,2.1
2023-04-01T20:00:05.680Z,1.8
2023-04-01T20:04:03.615Z,1.8
2023-04-01T20:08:04.485Z,1.6
2023-04-01T20:12:05.407Z,1.6
2023-04-01T20:16:02.884Z,1.6
2023-04-01T20:20:03.288Z,1.3
2023-04-01T20:24:05.100Z,1.3
2023-04-01T20:28:02.052Z,1
2023-04-01T20:32:06.275Z,1
2023-04-01T20:36:06.154Z,1
2023-04-01T20:40:10.527Z,0.8
2023-04-01T20:44:05.082Z,0.8
2023-04-01T20:48:11.158Z,0.6
2023-04-01T20:52:04.668Z,0.6
2023-04-01T20:56:10.339Z,0.6
2023-04-01T21:00:10.639Z,0.4
2023-04-01T21:04:11.613Z,0.4
2023-04-01T21:08:05.208Z,0.2
2023-04-01T21:12:04.544Z,0.2
2023-04-01T21:16:07.945Z,0.2
2023-04-01T21:20:09.586Z,0
2023-04-01T21:24:09.406Z,0
2023-04-01T21:28:10.570Z,-0.2
2023-04-01T21:32:09.890Z,-0.2
2023-04-01T21:36:03.978Z,-0.2
2023-04-01T21:40:10.405Z,-0.5
2023-04-01T21:44:08.125Z,-0.5
2023-04-01T21:48:10.325Z,-0.7
2023-04-01T21:52:10.598Z,-0.7
2023-04-01T21:56:10.246Z,-0.7
2023-04-01T22:00:11.334Z,-0.9
2023-04-01T22:04:10.590Z,-0.9
2023-04-01T22:08:05.625Z,-1.1
2023-04-01T22:12:04.701Z,-1.1
2023-04-01T22:16:06.312Z,-1.1
2023-04-01T22:20:11.040Z,-1.4
2023-04-01T22:24:04.573Z,-1.4
2023-04-01T22:28:03.975Z,-1.6
2023-04-01T22:32:03.684Z,-1.6
2023-04-01T22:36:06.279Z,-1.6
2023-04-01T22:40:10.704Z,-1.7
2023-04-01T22:44:00.865Z,-1.7
2023-04-01T22:48:08.176Z,-2
2023-04-01T22:52:05.438Z,-2
2023-04-01T22:56:03.573Z,-2
2023-04-01T23:00:06.875Z,-2.2
2023-04-01T23:04:03.705Z,-2.2
2023-04-01T23:08:10.306Z,-2.4
2023-04-01T23:12:02.851Z,-2.4
2023-04-01T23:16:01.824Z,-2.4
2023-04-01T23:20:05.980Z,-2.5
2023-04-01T23:24:06.540Z,-2.5
2023-04-01T23:28:09.323Z,-2.8
2023-04-01T23:32:00.839Z,-2.8
2023-04-01T23:36:05.534Z,-2.8
2023-04-01T23:40:01.009Z,-2.9
2023-04-01T23:44:02.476Z,-2.9
2023-04-01T23:48:00.752Z,-3.1
2023-04-01T23:52:04.437Z,-3.1
2023-04-01T23:56:01.366Z,-3.1
